createdAt,value
2024-02-29T00:01:32.958Z,10.23
2024-02-29T00:04:01.401Z,10.60
2024-02-29T00:06:30.053Z,8.33
2024-02-29T00:08:58.441Z,7.93
2024-02-29T00:11:26.783Z,7.43
2024-02-29T00:13:56.555Z,8.80
2024-02-29T00:16:24.852Z,6.10
2024-02-29T00:18:53.238Z,7.60
2024-02-29T00:21:21.662Z,8.83
2024-02-29T00:23:50.131Z,9.60
2024-02-29T00:26:18.426Z,7.97
2024-02-29T00:28:46.921Z,18.00
2024-02-29T00:31:16.923Z,11.33
2024-02-29T00:33:45.273Z,8.43
2024-02-29T00:36:13.602Z,14.50
2024-02-29T00:38:42.088Z,10.90
2024-02-29T00:41:10.538Z,11.07
2024-02-29T00:43:40.838Z,9.20
2024-02-29T00:46:09.201Z,11.37
2024-02-29T00:48:39.766Z,9.00
2024-02-29T00:51:08.143Z,9.10
2024-02-29T00:53:36.401Z,10.90
2024-02-29T00:56:05.263Z,10.10
2024-02-29T00:58:33.679Z,9.73
2024-02-29T01:01:02.439Z,12.67
2024-02-29T01:03:32.729Z,10.47
2024-02-29T01:06:10.405Z,11.13
2024-02-29T01:08:39.561Z,10.60
2024-02-29T01:11:07.839Z,11.03
2024-02-29T01:13:36.482Z,10.33
2024-02-29T01:16:06.978Z,10.67
2024-02-29T01:18:36.368Z,12.20
2024-02-29T01:21:07.815Z,10.93
2024-02-29T01:23:36.455Z,11.67
2024-02-29T01:26:05.438Z,12.67
2024-02-29T01:28:33.806Z,12.03
2024-02-29T01:31:02.327Z,8.97
2024-02-29T01:33:31.151Z,13.73
2024-02-29T01:36:01.901Z,11.27
2024-02-29T01:38:31.646Z,9.93
2024-02-29T01:40:59.953Z,9.67
2024-02-29T01:43:30.482Z,17.33
2024-02-29T01:46:10.335Z,10.30
2024-02-29T01:48:38.834Z,10.87
2024-02-29T01:51:08.496Z,11.73
2024-02-29T01:53:38.204Z,10.27
2024-02-29T01:56:06.951Z,9.37
2024-02-29T01:58:35.816Z,12.57
2024-02-29T02:01:04.747Z,14.00
2024-02-29T02:03:33.336Z,12.27
2024-02-29T02:06:01.745Z,12.23
2024-02-29T02:08:32.642Z,13.13
2024-02-29T02:11:05.316Z,13.43
2024-02-29T02:13:34.719Z,14.80
2024-02-29T02:16:03.329Z,12.83
2024-02-29T02:18:33.140Z,12.53
2024-02-29T02:21:02.898Z,13.00
2024-02-29T02:23:31.358Z,14.50
2024-02-29T02:26:01.222Z,11.87
2024-02-29T02:28:30.533Z,14.17
2024-02-29T02:30:58.900Z,12.90
2024-02-29T02:33:27.318Z,13.30
2024-02-29T02:36:03.092Z,10.63
2024-02-29T02:38:31.600Z,18.40
2024-02-29T02:40:59.866Z,12.37
2024-02-29T02:43:28.198Z,14.00
2024-02-29T02:45:56.629Z,11.40
2024-02-29T02:48:25.031Z,12.37
2024-02-29T02:50:54.820Z,13.17
2024-02-29T02:53:24.662Z,13.00
2024-02-29T02:55:52.955Z,13.50
2024-02-29T02:58:21.307Z,11.23
2024-02-29T03:00:49.752Z,11.17
2024-02-29T03:03:18.142Z,10.10
2024-02-29T03:05:46.504Z,12.30
2024-02-29T03:08:15.191Z,9.77
2024-02-29T03:10:45.021Z,11.20
2024-02-29T03:13:13.376Z,11.70
2024-02-29T03:15:42.101Z,11.90
2024-02-29T03:18:10.691Z,10.20
2024-02-29T03:20:39.121Z,11.87
2024-02-29T03:23:08.400Z,13.20
2024-02-29T03:25:36.884Z,9.13
2024-02-29T03:28:06.821Z,11.30
2024-02-29T03:30:39.753Z,14.77
2024-02-29T03:33:08.347Z,10.57
2024-02-29T03:35:37.996Z,11.47
2024-02-29T03:38:06.849Z,11.70
2024-02-29T03:40:35.200Z,11.97
2024-02-29T03:43:03.540Z,11.10
2024-02-29T03:45:33.270Z,11.70
2024-02-29T03:48:01.796Z,9.70
2024-02-29T03:50:30.431Z,12.20
2024-02-29T03:52:58.880Z,10.87
2024-02-29T03:55:27.253Z,13.30
2024-02-29T03:57:55.554Z,11.77
2024-02-29T04:00:24.239Z,13.57
2024-02-29T04:02:54.193Z,13.43
2024-02-29T04:05:25.597Z,12.73
2024-02-29T04:07:58.075Z,14.20
2024-02-29T04:10:28.489Z,14.00
2024-02-29T04:12:57.172Z,13.60
2024-02-29T04:15:25.521Z,15.03
2024-02-29T04:17:55.409Z,15.97
2024-02-29T04:20:23.789Z,15.90
2024-02-29T04:22:52.081Z,21.03
2024-02-29T04:25:24.196Z,15.33
2024-02-29T04:27:52.678Z,14.40
2024-02-29T04:30:21.098Z,13.43
2024-02-29T04:32:49.436Z,17.97
2024-02-29T04:35:19.614Z,15.17
2024-02-29T04:37:48.511Z,14.67
2024-02-29T04:40:16.894Z,15.80
2024-02-29T04:42:45.280Z,17.40
2024-02-29T04:45:13.722Z,16.80
2024-02-29T04:47:42.068Z,18.10
2024-02-29T04:50:10.924Z,12.77
2024-02-29T04:52:40.635Z,17.03
2024-02-29T04:55:09.903Z,15.90
2024-02-29T04:57:38.386Z,13.47
2024-02-29T05:00:08.255Z,13.80
2024-02-29T05:02:36.872Z,14.00
2024-02-29T05:05:07.607Z,16.03
2024-02-29T05:07:36.033Z,10.40
2024-02-29T05:10:08.819Z,19.23
2024-02-29T05:12:37.421Z,16.93
2024-02-29T05:15:06.923Z,14.30
2024-02-29T05:17:35.461Z,15.77
2024-02-29T05:20:04.064Z,14.57
2024-02-29T05:22:32.395Z,15.30
2024-02-29T05:25:00.923Z,12.70
2024-02-29T05:27:31.444Z,11.57
2024-02-29T05:29:59.969Z,13.80
2024-02-29T05:32:31.360Z,9.77
2024-02-29T05:34:59.648Z,9.57
2024-02-29T05:37:31.154Z,12.30
2024-02-29T05:40:00.878Z,11.80
2024-02-29T05:42:30.571Z,12.03
2024-02-29T05:45:00.036Z,18.73
2024-02-29T05:47:28.478Z,11.57
2024-02-29T05:49:57.315Z,13.00
2024-02-29T05:52:25.729Z,12.33
2024-02-29T05:54:54.280Z,11.43
2024-02-29T05:57:25.189Z,16.67
2024-02-29T05:59:55.913Z,12.37
2024-02-29T06:02:25.306Z,14.43
2024-02-29T06:04:53.574Z,15.70
2024-02-29T06:07:21.843Z,13.10
2024-02-29T06:09:50.201Z,15.27
2024-02-29T06:12:18.876Z,15.27
2024-02-29T06:14:48.657Z,14.70
2024-02-29T06:17:18.465Z,17.93
2024-02-29T06:19:46.783Z,15.40
2024-02-29T06:22:15.829Z,15.13
2024-02-29T06:24:44.281Z,16.27
2024-02-29T06:27:12.551Z,15.63
2024-02-29T06:29:40.790Z,17.23
2024-02-29T06:32:10.287Z,15.40
2024-02-29T06:34:39.958Z,15.37
2024-02-29T06:37:08.527Z,14.47
2024-02-29T06:39:37.987Z,16.33
2024-02-29T06:42:06.862Z,14.47
2024-02-29T06:44:35.156Z,16.70
2024-02-29T06:47:03.544Z,16.00
2024-02-29T06:49:31.891Z,15.50
2024-02-29T06:52:01.564Z,18.43
2024-02-29T06:54:29.841Z,16.03
2024-02-29T06:56:58.419Z,16.93
2024-02-29T06:59:26.714Z,15.17
2024-02-29T07:01:55.321Z,16.80
2024-02-29T07:04:23.699Z,12.93
2024-02-29T07:06:52.205Z,16.07
2024-02-29T07:09:21.989Z,15.13
2024-02-29T07:11:51.415Z,11.33
2024-02-29T07:14:20.055Z,18.33
2024-02-29T07:16:49.388Z,16.97
2024-02-29T07:19:20.064Z,11.23
2024-02-29T07:21:48.563Z,12.33
2024-02-29T07:24:16.894Z,11.90
2024-02-29T07:26:46.853Z,14.67
2024-02-29T07:29:15.398Z,11.47
2024-02-29T07:31:44.789Z,15.23
2024-02-29T07:34:17.225Z,12.50
2024-02-29T07:36:45.843Z,10.60
2024-02-29T07:39:14.371Z,12.03
2024-02-29T07:41:42.887Z,11.40
2024-02-29T07:44:12.660Z,9.97
2024-02-29T07:46:40.999Z,12.70
2024-02-29T07:49:11.066Z,11.70
2024-02-29T07:51:39.436Z,14.67
2024-02-29T07:54:08.051Z,11.77
2024-02-29T07:56:36.361Z,13.60
2024-02-29T07:59:04.999Z,17.03
2024-02-29T08:01:35.019Z,13.70
2024-02-29T08:04:03.437Z,10.70
2024-02-29T08:06:32.090Z,11.20
2024-02-29T08:09:00.391Z,14.90
2024-02-29T08:11:28.754Z,10.67
2024-02-29T08:13:57.181Z,11.27
2024-02-29T08:16:25.619Z,14.93
2024-02-29T08:18:55.398Z,13.60
2024-02-29T08:21:24.261Z,14.30
2024-02-29T08:23:52.770Z,11.00
2024-02-29T08:26:21.199Z,12.23
2024-02-29T08:28:50.977Z,10.73
2024-02-29T08:31:19.671Z,11.33
2024-02-29T08:33:48.161Z,11.70
2024-02-29T08:36:17.903Z,11.83
2024-02-29T08:38:46.247Z,12.70
2024-02-29T08:41:14.708Z,12.07
2024-02-29T08:43:44.942Z,11.67
2024-02-29T08:46:14.022Z,13.70
2024-02-29T08:48:43.110Z,11.43
2024-02-29T08:51:11.439Z,12.10
2024-02-29T08:53:41.400Z,15.00
2024-02-29T08:56:09.678Z,12.90
2024-02-29T08:58:38.132Z,15.00
2024-02-29T09:01:06.775Z,13.53
2024-02-29T09:03:35.159Z,12.43
2024-02-29T09:06:03.538Z,12.20
2024-02-29T09:08:31.817Z,12.47
2024-02-29T09:11:01.559Z,12.67
2024-02-29T09:13:34.955Z,20.40
2024-02-29T09:16:05.120Z,15.03
2024-02-29T09:18:33.558Z,11.80
2024-02-29T09:21:01.880Z,14.87
2024-02-29T09:23:30.377Z,10.90
2024-02-29T09:25:59.050Z,15.77
2024-02-29T09:28:28.728Z,13.00
2024-02-29T09:30:57.134Z,13.90
2024-02-29T09:33:26.423Z,17.77
2024-02-29T09:35:58.697Z,14.20
2024-02-29T09:38:28.454Z,16.57
2024-02-29T09:41:03.193Z,11.57
2024-02-29T09:43:45.338Z,11.63
2024-02-29T09:46:13.840Z,12.17
2024-02-29T09:48:42.761Z,9.87
2024-02-29T09:51:16.474Z,10.50
2024-02-29T09:53:45.246Z,8.93
2024-02-29T09:56:15.897Z,13.30
2024-02-29T09:58:46.135Z,12.80
2024-02-29T10:01:14.648Z,11.87
2024-02-29T10:03:44.217Z,9.40
2024-02-29T10:06:13.288Z,13.37
2024-02-29T10:08:41.595Z,8.90
2024-02-29T10:11:10.227Z,11.37
2024-02-29T10:13:39.930Z,11.80
2024-02-29T10:16:11.473Z,14.50
2024-02-29T10:18:40.881Z,12.47
2024-02-29T10:21:12.582Z,12.20
2024-02-29T10:23:41.718Z,15.27
2024-02-29T10:26:10.399Z,9.57
2024-02-29T10:28:38.885Z,13.07
2024-02-29T10:31:07.871Z,9.93
2024-02-29T10:33:39.963Z,11.60
2024-02-29T10:36:13.317Z,12.57
2024-02-29T10:38:41.680Z,11.30
2024-02-29T10:41:11.697Z,11.37
2024-02-29T10:43:40.364Z,11.47
2024-02-29T10:46:09.874Z,9.57
2024-02-29T10:48:44.474Z,11.63
2024-02-29T10:51:19.496Z,11.03
2024-02-29T10:53:50.711Z,8.87
2024-02-29T10:56:23.869Z,11.30
2024-02-29T10:58:55.685Z,11.67
2024-02-29T11:01:24.391Z,11.27
2024-02-29T11:03:54.430Z,11.20
2024-02-29T11:06:23.271Z,10.23
2024-02-29T11:08:52.301Z,12.33
2024-02-29T11:11:23.354Z,15.70
2024-02-29T11:13:51.655Z,9.17
2024-02-29T11:16:21.842Z,14.13
2024-02-29T11:18:50.305Z,10.13
2024-02-29T11:21:30.604Z,12.77
2024-02-29T11:24:04.054Z,10.77
2024-02-29T11:26:33.806Z,10.93
2024-02-29T11:29:02.892Z,11.00
2024-02-29T11:31:31.141Z,8.60
2024-02-29T11:34:00.826Z,12.17
2024-02-29T11:36:33.466Z,9.73
2024-02-29T11:39:01.772Z,8.20
2024-02-29T11:41:30.355Z,11.00
2024-02-29T11:43:58.629Z,10.70
2024-02-29T11:46:27.125Z,10.00
2024-02-29T11:48:57.587Z,12.93
2024-02-29T11:51:26.785Z,12.90
2024-02-29T11:53:56.811Z,9.07
2024-02-29T11:56:25.601Z,10.03
2024-02-29T11:58:55.023Z,9.53
2024-02-29T12:01:24.781Z,15.10
2024-02-29T12:03:53.642Z,12.87
2024-02-29T12:06:22.160Z,9.20
2024-02-29T12:08:51.133Z,11.30
2024-02-29T12:11:36.882Z,10.70
2024-02-29T12:14:08.119Z,9.07
2024-02-29T12:16:37.623Z,11.73
2024-02-29T12:19:07.103Z,12.17
2024-02-29T12:21:36.364Z,10.30
2024-02-29T12:24:05.122Z,16.70
2024-02-29T12:26:35.873Z,10.70
2024-02-29T12:29:07.913Z,10.23
2024-02-29T12:31:36.352Z,10.17
2024-02-29T12:34:06.573Z,10.80
2024-02-29T12:36:35.117Z,8.60
2024-02-29T12:39:04.144Z,10.23
2024-02-29T12:41:32.954Z,10.37
2024-02-29T12:44:05.875Z,12.30
2024-02-29T12:46:34.295Z,9.97
2024-02-29T12:49:04.758Z,13.73
2024-02-29T12:51:33.348Z,11.03
2024-02-29T12:54:01.689Z,10.87
2024-02-29T12:56:30.796Z,11.37
2024-02-29T12:58:59.197Z,12.47
2024-02-29T13:01:30.147Z,10.77
2024-02-29T13:03:59.009Z,12.67
2024-02-29T13:06:27.326Z,8.93
2024-02-29T13:08:55.647Z,11.17
2024-02-29T13:11:24.985Z,8.23
2024-02-29T13:13:53.405Z,7.90
2024-02-29T13:16:21.882Z,10.87
2024-02-29T13:18:51.883Z,12.27
2024-02-29T13:21:20.295Z,10.60
2024-02-29T13:23:48.716Z,9.13
2024-02-29T13:26:17.218Z,10.30
2024-02-29T13:28:46.630Z,9.40
2024-02-29T13:31:15.300Z,8.53
2024-02-29T13:33:44.028Z,9.37
2024-02-29T13:36:13.872Z,9.93
2024-02-29T13:38:42.610Z,10.20
2024-02-29T13:41:11.505Z,11.67
2024-02-29T13:43:40.995Z,10.17
2024-02-29T13:46:09.447Z,9.40
2024-02-29T13:48:38.937Z,10.33
2024-02-29T13:51:07.690Z,12.50
2024-02-29T13:53:37.433Z,9.00
2024-02-29T13:56:05.957Z,12.27
2024-02-29T13:58:34.342Z,8.13
2024-02-29T14:01:02.749Z,9.17
2024-02-29T14:03:31.103Z,6.77
2024-02-29T14:05:59.792Z,9.17
2024-02-29T14:08:29.280Z,14.43
2024-02-29T14:10:58.981Z,10.93
2024-02-29T14:13:27.433Z,9.83
2024-02-29T14:15:55.780Z,9.97
2024-02-29T14:18:24.546Z,9.90
2024-02-29T14:20:52.877Z,6.63
2024-02-29T14:23:21.429Z,11.77
2024-02-29T14:25:49.710Z,10.83
2024-02-29T14:28:19.592Z,10.73
2024-02-29T14:30:50.082Z,9.10
2024-02-29T14:33:18.588Z,8.80
2024-02-29T14:35:48.125Z,9.50
2024-02-29T14:38:16.501Z,8.97
2024-02-29T14:40:44.818Z,9.60
2024-02-29T14:43:13.173Z,12.13
2024-02-29T14:45:43.316Z,11.77
2024-02-29T14:48:11.742Z,11.23
2024-02-29T14:50:41.627Z,8.80
2024-02-29T14:53:10.080Z,9.63
2024-02-29T14:55:38.549Z,7.10
2024-02-29T14:58:07.483Z,7.83
2024-02-29T15:00:35.813Z,9.57
2024-02-29T15:03:05.541Z,16.93
2024-02-29T15:05:33.819Z,12.07
2024-02-29T15:08:04.172Z,8.60
2024-02-29T15:10:32.836Z,8.83
2024-02-29T15:13:01.976Z,11.33
2024-02-29T15:15:30.415Z,10.40
2024-02-29T15:17:59.101Z,10.63
2024-02-29T15:20:28.918Z,8.90
2024-02-29T15:22:59.362Z,8.10
2024-02-29T15:25:29.491Z,10.87
2024-02-29T15:28:05.422Z,8.47
2024-02-29T15:30:33.986Z,8.53
2024-02-29T15:33:02.382Z,6.90
2024-02-29T15:35:32.114Z,7.00
2024-02-29T15:38:00.810Z,6.10
2024-02-29T15:40:29.467Z,8.50
2024-02-29T15:42:57.920Z,6.93
2024-02-29T15:45:26.304Z,7.87
2024-02-29T15:47:54.776Z,7.83
2024-02-29T15:50:24.219Z,6.77
2024-02-29T15:52:56.194Z,7.23
2024-02-29T15:55:25.598Z,8.13
2024-02-29T15:57:54.274Z,6.93
2024-02-29T16:00:24.715Z,6.60
2024-02-29T16:02:54.630Z,6.40
2024-02-29T16:05:22.999Z,7.10
2024-02-29T16:07:55.767Z,6.90
2024-02-29T16:10:24.321Z,6.77
2024-02-29T16:12:52.861Z,6.50
2024-02-29T16:15:22.251Z,6.00
2024-02-29T16:17:53.534Z,5.37
2024-02-29T16:20:23.135Z,7.27
2024-02-29T16:22:51.648Z,5.13
2024-02-29T16:25:22.153Z,6.43
2024-02-29T16:27:51.629Z,7.10
2024-02-29T16:30:20.467Z,6.25
2024-02-29T16:32:48.919Z,5.00
2024-02-29T16:35:17.281Z,7.73
2024-02-29T16:37:50.035Z,8.60
2024-02-29T16:40:18.511Z,5.17
2024-02-29T16:42:48.193Z,5.80
2024-02-29T16:45:16.483Z,6.27
2024-02-29T16:47:45.706Z,5.97
2024-02-29T16:50:14.061Z,7.10
2024-02-29T16:52:42.829Z,5.90
2024-02-29T16:55:11.325Z,5.40
2024-02-29T16:57:40.734Z,5.60
2024-02-29T17:00:12.525Z,6.47
2024-02-29T17:02:41.055Z,10.40
2024-02-29T17:05:09.566Z,6.87
2024-02-29T17:07:37.954Z,6.37
2024-02-29T17:10:06.601Z,5.00
2024-02-29T17:12:34.914Z,4.67
2024-02-29T17:15:03.328Z,5.43
2024-02-29T17:17:33.127Z,4.63
2024-02-29T17:20:01.485Z,5.17
2024-02-29T17:22:29.819Z,5.97
2024-02-29T17:24:58.219Z,4.83
2024-02-29T17:27:26.844Z,4.83
2024-02-29T17:29:55.843Z,6.90
2024-02-29T17:32:26.147Z,5.30
2024-02-29T17:34:55.853Z,5.00
2024-02-29T17:37:25.722Z,7.27
2024-02-29T17:39:57.889Z,5.37
2024-02-29T17:42:26.338Z,5.97
2024-02-29T17:44:54.668Z,4.73
2024-02-29T17:47:23.251Z,5.90
2024-02-29T17:49:52.472Z,4.93
2024-02-29T17:52:22.564Z,5.13
2024-02-29T17:54:51.727Z,5.27
2024-02-29T17:57:20.054Z,5.53
2024-02-29T17:59:48.344Z,4.33
2024-02-29T18:02:19.829Z,4.80
2024-02-29T18:04:50.592Z,4.50
2024-02-29T18:07:22.396Z,5.80
2024-02-29T18:09:50.854Z,6.77
2024-02-29T18:12:19.444Z,6.93
2024-02-29T18:14:47.824Z,5.70
2024-02-29T18:17:16.085Z,6.27
2024-02-29T18:19:44.534Z,7.13
2024-02-29T18:22:12.910Z,8.00
2024-02-29T18:24:42.589Z,6.63
2024-02-29T18:27:15.267Z,6.47
2024-02-29T18:29:45.585Z,6.47
2024-02-29T18:32:14.107Z,6.07
2024-02-29T18:34:43.730Z,7.33
2024-02-29T18:37:12.039Z,7.73
2024-02-29T18:39:40.450Z,7.80
2024-02-29T18:42:10.479Z,7.07
2024-02-29T18:44:38.749Z,5.47
2024-02-29T18:47:08.537Z,8.10
2024-02-29T18:49:36.949Z,7.70
2024-02-29T18:52:05.803Z,9.20
2024-02-29T18:54:34.409Z,9.97
2024-02-29T18:57:02.752Z,7.83
2024-02-29T18:59:33.494Z,7.33
2024-02-29T19:02:05.190Z,7.83
2024-02-29T19:04:34.077Z,6.87
2024-02-29T19:07:03.075Z,8.83
2024-02-29T19:09:32.526Z,6.73
2024-02-29T19:12:01.136Z,8.90
2024-02-29T19:14:30.772Z,8.50
2024-02-29T19:17:00.536Z,8.57
2024-02-29T19:19:30.044Z,9.10
2024-02-29T19:22:00.600Z,7.70
2024-02-29T19:24:28.981Z,8.93
2024-02-29T19:26:57.324Z,8.10
2024-02-29T19:29:25.659Z,8.23
2024-02-29T19:31:56.127Z,8.80
2024-02-29T19:34:26.393Z,8.90
2024-02-29T19:36:55.936Z,10.07
2024-02-29T19:39:24.419Z,12.43
2024-02-29T19:41:53.269Z,7.60
2024-02-29T19:44:21.487Z,8.37
2024-02-29T19:46:49.961Z,9.97
2024-02-29T19:49:19.249Z,8.97
2024-02-29T19:51:49.160Z,10.73
2024-02-29T19:54:17.521Z,11.60
2024-02-29T19:56:46.844Z,9.30
2024-02-29T19:59:15.204Z,9.50
2024-02-29T20:01:44.636Z,9.73
2024-02-29T20:04:14.311Z,9.80
2024-02-29T20:06:44.083Z,10.73
2024-02-29T20:09:13.709Z,11.77
2024-02-29T20:11:42.489Z,8.70
2024-02-29T20:14:10.769Z,9.23
2024-02-29T20:16:39.356Z,9.03
2024-02-29T20:19:08.770Z,9.53
2024-02-29T20:21:37.169Z,10.57
2024-02-29T20:24:05.748Z,11.43
2024-02-29T20:26:35.465Z,11.00
2024-02-29T20:29:03.902Z,10.10
2024-02-29T20:31:33.369Z,11.43
2024-02-29T20:34:01.728Z,12.13
2024-02-29T20:36:30.659Z,12.53
2024-02-29T20:39:00.024Z,12.70
2024-02-29T20:41:29.521Z,11.93
2024-02-29T20:43:59.188Z,11.60
2024-02-29T20:46:27.803Z,13.60
2024-02-29T20:48:56.331Z,14.13
2024-02-29T20:51:25.910Z,11.33
2024-02-29T20:53:54.222Z,10.67
2024-02-29T20:56:23.843Z,12.83
2024-02-29T20:58:52.232Z,14.30
2024-02-29T21:01:22.088Z,14.97
2024-02-29T21:03:52.445Z,14.67
2024-02-29T21:06:23.770Z,13.67
2024-02-29T21:08:52.367Z,12.57
2024-02-29T21:11:21.231Z,15.47
2024-02-29T21:13:49.629Z,18.43
2024-02-29T21:16:17.979Z,17.07
2024-02-29T21:18:47.733Z,17.97
2024-02-29T21:21:18.942Z,17.50
2024-02-29T21:23:49.184Z,21.23
2024-02-29T21:26:19.065Z,18.90
2024-02-29T21:28:49.635Z,17.83
2024-02-29T21:31:18.054Z,18.77
2024-02-29T21:33:47.799Z,16.37
2024-02-29T21:36:16.230Z,18.57
2024-02-29T21:38:45.999Z,15.27
2024-02-29T21:41:14.456Z,13.50
2024-02-29T21:43:43.220Z,18.67
2024-02-29T21:46:14.608Z,21.03
2024-02-29T21:48:43.058Z,16.73
2024-02-29T21:51:18.334Z,16.50
2024-02-29T21:53:46.741Z,16.37
2024-02-29T21:56:15.180Z,17.63
2024-02-29T21:58:44.155Z,20.07
2024-02-29T22:01:12.642Z,17.53
2024-02-29T22:03:44.025Z,14.67
2024-02-29T22:06:13.752Z,17.93
2024-02-29T22:08:42.087Z,15.30
2024-02-29T22:11:10.802Z,13.17
2024-02-29T22:13:39.120Z,19.50
2024-02-29T22:16:08.025Z,13.43
2024-02-29T22:18:36.393Z,16.10
2024-02-29T22:21:05.277Z,17.23
2024-02-29T22:23:41.752Z,17.00
2024-02-29T22:26:10.057Z,16.53
2024-02-29T22:28:39.536Z,19.20
2024-02-29T22:31:07.926Z,16.67
2024-02-29T22:33:36.196Z,17.70
2024-02-29T22:36:05.288Z,15.70
2024-02-29T22:38:33.609Z,16.07
2024-02-29T22:41:03.528Z,12.70
2024-02-29T22:43:31.922Z,16.00
2024-02-29T22:46:00.379Z,14.97
2024-02-29T22:48:28.674Z,14.80
2024-02-29T22:50:56.919Z,14.33
2024-02-29T22:53:26.285Z,13.80
2024-02-29T22:55:54.517Z,19.30
2024-02-29T22:58:24.444Z,14.63
2024-02-29T23:00:53.662Z,13.90
2024-02-29T23:03:23.188Z,16.60
2024-02-29T23:05:51.598Z,15.63
2024-02-29T23:08:20.949Z,15.00
2024-02-29T23:10:49.541Z,15.73
2024-02-29T23:13:20.604Z,16.17
2024-02-29T23:15:50.916Z,15.83
2024-02-29T23:18:19.186Z,16.77
2024-02-29T23:20:48.574Z,14.70
2024-02-29T23:23:16.903Z,15.13
2024-02-29T23:25:45.207Z,12.00
2024-02-29T23:28:13.590Z,12.10
2024-02-29T23:30:41.958Z,12.80
2024-02-29T23:33:11.697Z,12.97
2024-02-29T23:35:40.187Z,12.63
2024-02-29T23:38:08.638Z,14.77
2024-02-29T23:40:37.161Z,11.60
2024-02-29T23:43:05.686Z,11.67
2024-02-29T23:45:33.940Z,11.50
2024-02-29T23:48:03.758Z,14.40
2024-02-29T23:50:33.423Z,14.20
2024-02-29T23:53:01.703Z,14.20
2024-02-29T23:55:30.111Z,14.20
2024-02-29T23:57:58.538Z,11.10
